Time;durP1;ratioP1;P1;durP2;ratioP2;P2;SDS_P1;SDS_P2;PMS_P1;PMS_P2;Temp;Humidity;BMP_temperature;BMP_pressure;BME280_temperature;BME280_humidity;BME280_pressure;Samples;Min_cycle;Max_cycle;Signal;HPM_P1;HPM_P2
2022/09/17 00:01:17;;;;;;;0.10;0.10;;;;;;;;;;5048678;28;20175;-74
2022/09/17 00:03:44;;;;;;;0.10;0.10;;;;;;;;;;5051652;28;20081;-73
2022/09/17 00:06:11;;;;;;;0.08;0.08;;;;;;;;;;5049515;28;20048;-74
2022/09/17 00:08:38;;;;;;;0.10;0.10;;;;;;;;;;5044357;28;20053;-74
2022/09/17 00:11:08;;;;;;;0.00;0.00;;;;;;;;;;5054259;28;20045;-74
2022/09/17 00:13:34;;;;;;;0.10;0.10;;;;;;;;;;5045828;28;20045;-74
2022/09/17 00:16:00;;;;;;;0.25;0.25;;;;;;;;;;5054550;28;20047;-73
2022/09/17 00:18:26;;;;;;;0.10;0.10;;;;;;;;;;5038165;28;20152;-74
2022/09/17 00:20:53;;;;;;;0.10;0.10;;;;;;;;;;5055069;28;20494;-74
2022/09/17 00:23:19;;;;;;;0.10;0.10;;;;;;;;;;5052128;28;20047;-74
2022/09/17 00:25:45;;;;;;;0.10;0.10;;;;;;;;;;5048957;28;20042;-74
2022/09/17 00:28:12;;;;;;;0.10;0.10;;;;;;;;;;5059076;28;20048;-74
2022/09/17 00:30:39;;;;;;;0.10;0.10;;;;;;;;;;5058052;28;20036;-74
2022/09/17 00:33:06;;;;;;;0.00;0.00;;;;;;;;;;5051529;28;20170;-74
2022/09/17 00:35:32;;;;;;;0.10;0.10;;;;;;;;;;5053864;28;20076;-74
2022/09/17 00:37:58;;;;;;;0.10;0.10;;;;;;;;;;5036792;28;20049;-73
2022/09/17 00:40:24;;;;;;;0.10;0.10;;;;;;;;;;5050941;28;20049;-74
2022/09/17 00:42:52;;;;;;;0.10;0.10;;;;;;;;;;5048760;28;20433;-74
2022/09/17 00:45:18;;;;;;;0.10;0.10;;;;;;;;;;5050528;28;20045;-73
2022/09/17 00:47:46;;;;;;;0.10;0.10;;;;;;;;;;5054789;28;20048;-74
2022/09/17 00:50:22;;;;;;;0.10;0.10;;;;;;;;;;5056370;28;20041;-74
2022/09/17 00:52:55;;;;;;;0.10;0.10;;;;;;;;;;5033007;28;20387;-74
2022/09/17 00:55:22;;;;;;;0.10;0.10;;;;;;;;;;5054128;28;20044;-74
2022/09/17 00:57:50;;;;;;;0.10;0.10;;;;;;;;;;5039738;28;20044;-73
2022/09/17 01:00:17;;;;;;;0.10;0.10;;;;;;;;;;5052719;28;20076;-74
2022/09/17 01:02:43;;;;;;;0.10;0.10;;;;;;;;;;5053837;28;20045;-74
2022/09/17 01:05:10;;;;;;;0.10;0.10;;;;;;;;;;5055583;28;20044;-74
2022/09/17 01:07:45;;;;;;;0.10;0.10;;;;;;;;;;5058304;28;20118;-74
2022/09/17 01:10:19;;;;;;;0.10;0.10;;;;;;;;;;5061906;28;20123;-74
2022/09/17 01:12:51;;;;;;;0.00;0.00;;;;;;;;;;5056900;28;20053;-73
2022/09/17 01:15:21;;;;;;;0.10;0.10;;;;;;;;;;5056298;28;20065;-74
2022/09/17 01:17:53;;;;;;;0.10;0.10;;;;;;;;;;5055218;28;20118;-73
2022/09/17 01:20:52;;;;;;;0.10;0.10;;;;;;;;;;5057899;28;20044;-73
2022/09/17 01:23:36;;;;;;;0.10;0.10;;;;;;;;;;5011761;28;20056;-74
2022/09/17 01:26:15;;;;;;;0.10;0.10;;;;;;;;;;5057733;28;20056;-74
2022/09/17 01:28:45;;;;;;;0.10;0.10;;;;;;;;;;5058976;28;20731;-74
2022/09/17 01:31:32;;;;;;;0.10;0.10;;;;;;;;;;5057927;28;20043;-74
2022/09/17 01:34:01;;;;;;;0.10;0.10;;;;;;;;;;5059084;28;20051;-74
2022/09/17 01:36:40;;;;;;;0.10;0.10;;;;;;;;;;5057599;28;20068;-74
2022/09/17 01:39:25;;;;;;;0.10;0.10;;;;;;;;;;5059698;28;20046;-73
2022/09/17 01:41:51;;;;;;;0.00;0.00;;;;;;;;;;5056458;28;20053;-74
2022/09/17 01:44:23;;;;;;;0.10;0.10;;;;;;;;;;5055675;28;20501;-74
2022/09/17 01:46:52;;;;;;;0.10;0.10;;;;;;;;;;5051315;28;20087;-73
2022/09/17 01:49:19;;;;;;;0.10;0.10;;;;;;;;;;5050291;28;20044;-73
2022/09/17 01:51:47;;;;;;;0.45;0.38;;;;;;;;;;5052885;28;20197;-74
2022/09/17 01:54:28;;;;;;;0.55;0.55;;;;;;;;;;5055911;28;20067;-74
2022/09/17 01:57:07;;;;;;;0.10;0.10;;;;;;;;;;5055474;28;20085;-73
2022/09/17 01:59:36;;;;;;;0.10;0.10;;;;;;;;;;5057589;28;20052;-73
2022/09/17 02:02:05;;;;;;;0.10;0.10;;;;;;;;;;5054012;28;20084;-73
2022/09/17 02:04:35;;;;;;;0.00;0.00;;;;;;;;;;5056022;28;20406;-73
2022/09/17 02:07:07;;;;;;;7.53;2.95;;;;;;;;;;5054661;28;20041;-73
2022/09/17 02:09:40;;;;;;;0.10;0.10;;;;;;;;;;5056155;28;20489;-74
2022/09/17 02:12:09;;;;;;;0.20;0.20;;;;;;;;;;5058389;28;20045;-74
2022/09/17 02:14:40;;;;;;;0.00;0.00;;;;;;;;;;5060467;28;20076;-73
2022/09/17 02:17:14;;;;;;;0.10;0.10;;;;;;;;;;5051854;28;20399;-73
2022/09/17 02:19:41;;;;;;;0.10;0.10;;;;;;;;;;5050050;28;20040;-74
2022/09/17 02:22:28;;;;;;;0.20;0.20;;;;;;;;;;5055292;28;20040;-74
2022/09/17 02:25:04;;;;;;;0.38;0.38;;;;;;;;;;5054444;28;20048;-74
2022/09/17 02:27:46;;;;;;;0.10;0.10;;;;;;;;;;5057878;28;20127;-74
2022/09/17 02:30:13;;;;;;;0.10;0.10;;;;;;;;;;5056852;28;20044;-74
2022/09/17 02:32:39;;;;;;;0.80;0.80;;;;;;;;;;5036226;28;20479;-74
2022/09/17 02:35:06;;;;;;;0.00;0.00;;;;;;;;;;5036906;28;20052;-75
2022/09/17 02:37:32;;;;;;;0.20;0.20;;;;;;;;;;5054773;28;20063;-74
2022/09/17 02:39:58;;;;;;;0.10;0.10;;;;;;;;;;5055743;28;20045;-74
2022/09/17 02:42:42;;;;;;;0.10;0.10;;;;;;;;;;5059082;28;20179;-74
2022/09/17 02:45:29;;;;;;;0.10;0.10;;;;;;;;;;5054520;28;20555;-74
2022/09/17 02:48:05;;;;;;;0.10;0.10;;;;;;;;;;5060134;28;20138;-74
2022/09/17 02:50:31;;;;;;;0.10;0.10;;;;;;;;;;5049460;28;20037;-74
2022/09/17 02:53:06;;;;;;;0.10;0.10;;;;;;;;;;5059680;28;20068;-74
2022/09/17 02:55:38;;;;;;;0.10;0.10;;;;;;;;;;5048865;28;20460;-74
2022/09/17 02:58:24;;;;;;;0.10;0.10;;;;;;;;;;5064010;28;20082;-73
2022/09/17 03:00:51;;;;;;;0.10;0.10;;;;;;;;;;5048897;28;20127;-74
2022/09/17 03:03:23;;;;;;;0.10;0.10;;;;;;;;;;5056952;28;20044;-74
2022/09/17 03:05:50;;;;;;;0.10;0.10;;;;;;;;;;5038507;28;20089;-74
2022/09/17 03:08:19;;;;;;;0.10;0.10;;;;;;;;;;5052729;28;20552;-74
2022/09/17 03:10:46;;;;;;;0.10;0.10;;;;;;;;;;5044232;28;20107;-73
2022/09/17 03:13:12;;;;;;;0.10;0.10;;;;;;;;;;5040259;28;20055;-74
2022/09/17 03:15:38;;;;;;;0.00;0.00;;;;;;;;;;5056905;28;20044;-74
2022/09/17 03:18:04;;;;;;;0.10;0.10;;;;;;;;;;5044734;28;20059;-74
2022/09/17 03:20:30;;;;;;;0.10;0.10;;;;;;;;;;5056035;28;20045;-74
2022/09/17 03:22:56;;;;;;;;;;;;;;;;;;5039065;28;20089;-74
2022/09/17 03:25:22;;;;;;;;;;;;;;;;;;5055723;28;19925;-74
2022/09/17 03:27:48;;;;;;;;;;;;;;;;;;5053498;28;20343;-74
2022/09/17 03:30:14;;;;;;;;;;;;;;;;;;5053724;28;20033;-74
2022/09/17 03:32:40;;;;;;;;;;;;;;;;;;5053225;28;20070;-74
2022/09/17 03:35:07;;;;;;;;;;;;;;;;;;5056035;28;19921;-74
2022/09/17 03:37:32;;;;;;;;;;;;;;;;;;5054991;28;19921;-74
2022/09/17 03:39:59;;;;;;;;;;;;;;;;;;5053393;28;19928;-75
2022/09/17 03:42:25;;;;;;;;;;;;;;;;;;5034920;28;19999;-75
2022/09/17 03:44:50;;;;;;;;;;;;;;;;;;5038440;28;20011;-73
2022/09/17 03:47:16;;;;;;;;;;;;;;;;;;5053130;28;19920;-73
2022/09/17 03:49:42;;;;;;;;;;;;;;;;;;5042444;28;19925;-75
2022/09/17 03:52:08;;;;;;;;;;;;;;;;;;5053552;28;19920;-74
2022/09/17 03:54:34;;;;;;;;;;;;;;;;;;5054981;28;19924;-73
2022/09/17 03:57:00;;;;;;;;;;;;;;;;;;5055399;28;19920;-75
2022/09/17 03:59:26;;;;;;;;;;;;;;;;;;5048818;28;20011;-75
2022/09/17 04:01:52;;;;;;;;;;;;;;;;;;5045357;28;19929;-75
2022/09/17 04:04:18;;;;;;;;;;;;;;;;;;5050210;28;19935;-75
2022/09/17 04:06:44;;;;;;;;;;;;;;;;;;5032256;28;20021;-75
2022/09/17 04:09:10;;;;;;;;;;;;;;;;;;5049697;28;20257;-74
2022/09/17 04:11:36;;;;;;;;;;;;;;;;;;5047015;28;19921;-74
2022/09/17 04:14:02;;;;;;;;;;;;;;;;;;5048307;28;19924;-75
2022/09/17 04:16:28;;;;;;;;;;;;;;;;;;5046144;28;19982;-74
2022/09/17 04:18:54;;;;;;;;;;;;;;;;;;5058736;28;19932;-74
2022/09/17 04:21:20;;;;;;;;;;;;;;;;;;5051721;28;20005;-74
2022/09/17 04:23:46;;;;;;;;;;;;;;;;;;5034536;28;19936;-75
2022/09/17 04:26:12;;;;;;;;;;;;;;;;;;5053871;28;20022;-75
2022/09/17 04:28:37;;;;;;;;;;;;;;;;;;5058574;28;19920;-75
2022/09/17 04:31:03;;;;;;;;;;;;;;;;;;5052195;28;19921;-75
2022/09/17 04:33:30;;;;;;;;;;;;;;;;;;5053047;28;19943;-76
2022/09/17 04:35:56;;;;;;;;;;;;;;;;;;5036630;28;20402;-78
2022/09/17 04:38:21;;;;;;;;;;;;;;;;;;5057194;28;19920;-77
2022/09/17 04:40:47;;;;;;;;;;;;;;;;;;5047321;28;19928;-76
2022/09/17 04:43:13;;;;;;;;;;;;;;;;;;5058894;28;20024;-75
2022/09/17 04:45:39;;;;;;;;;;;;;;;;;;5047395;28;20019;-75
2022/09/17 04:48:05;;;;;;;;;;;;;;;;;;5059258;28;20465;-77
2022/09/17 04:50:31;;;;;;;;;;;;;;;;;;5059930;28;20352;-76
2022/09/17 04:52:57;;;;;;;;;;;;;;;;;;5055630;28;20427;-77
2022/09/17 04:55:24;;;;;;;;;;;;;;;;;;5038106;28;19928;-77
2022/09/17 04:57:50;;;;;;;;;;;;;;;;;;5040005;28;20931;-77
2022/09/17 05:00:16;;;;;;;;;;;;;;;;;;5060905;28;19936;-77
2022/09/17 05:02:42;;;;;;;;;;;;;;;;;;5062892;28;20427;-75
2022/09/17 05:05:08;;;;;;;;;;;;;;;;;;5037375;28;20069;-76
2022/09/17 05:07:34;;;;;;;;;;;;;;;;;;5063762;28;20548;-77
2022/09/17 05:10:00;;;;;;;;;;;;;;;;;;5061594;28;20363;-76
2022/09/17 05:12:26;;;;;;;;;;;;;;;;;;5037028;28;20324;-76
2022/09/17 05:14:52;;;;;;;;;;;;;;;;;;5057603;28;20468;-76
2022/09/17 05:17:18;;;;;;;;;;;;;;;;;;5039666;28;20026;-76
2022/09/17 05:19:44;;;;;;;;;;;;;;;;;;5026261;28;20367;-77
2022/09/17 05:22:09;;;;;;;;;;;;;;;;;;5053710;28;20371;-77
2022/09/17 05:24:38;;;;;;;;;;;;;;;;;;5038689;28;20011;-78
2022/09/17 05:27:04;;;;;;;;;;;;;;;;;;5036817;28;19921;-80
2022/09/17 05:29:30;;;;;;;;;;;;;;;;;;5048626;28;19998;-78
2022/09/17 05:31:55;;;;;;;;;;;;;;;;;;5048573;28;19925;-78
2022/09/17 05:34:21;;;;;;;;;;;;;;;;;;5038696;28;20050;-81
2022/09/17 05:36:48;;;;;;;;;;;;;;;;;;5059116;28;19920;-78
2022/09/17 05:39:14;;;;;;;;;;;;;;;;;;5060767;28;19925;-77
2022/09/17 05:41:40;;;;;;;;;;;;;;;;;;5048725;28;19920;-77
2022/09/17 05:44:05;;;;;;;;;;;;;;;;;;5035998;28;19982;-79
2022/09/17 05:46:31;;;;;;;;;;;;;;;;;;5054875;28;20007;-76
2022/09/17 05:48:57;;;;;;;;;;;;;;;;;;5035604;28;19920;-79
2022/09/17 05:51:23;;;;;;;;;;;;;;;;;;5033237;28;19928;-78
2022/09/17 05:53:49;;;;;;;;;;;;;;;;;;5034981;28;20367;-79
2022/09/17 05:56:15;;;;;;;;;;;;;;;;;;5033754;28;19929;-76
2022/09/17 05:58:41;;;;;;;;;;;;;;;;;;5064508;28;19921;-76
2022/09/17 06:01:07;;;;;;;;;;;;;;;;;;5026353;28;19920;-77
2022/09/17 06:03:33;;;;;;;;;;;;;;;;;;5034830;28;20007;-70
2022/09/17 06:05:59;;;;;;;;;;;;;;;;;;5047945;28;19920;-72
2022/09/17 06:08:25;;;;;;;;;;;;;;;;;;5047370;28;19963;-72
2022/09/17 06:10:51;;;;;;;;;;;;;;;;;;5032949;28;19920;-74
2022/09/17 06:13:17;;;;;;;;;;;;;;;;;;5031910;28;20015;-72
2022/09/17 06:15:43;;;;;;;;;;;;;;;;;;5048303;28;19920;-73
2022/09/17 06:18:09;;;;;;;;;;;;;;;;;;5051075;28;19920;-73
2022/09/17 06:20:35;;;;;;;;;;;;;;;;;;5049280;28;19986;-71
2022/09/17 06:23:01;;;;;;;;;;;;;;;;;;5049764;28;19997;-73
2022/09/17 06:25:28;;;;;;;;;;;;;;;;;;5051269;28;19924;-73
2022/09/17 06:27:54;;;;;;;;;;;;;;;;;;5053126;28;19921;-75
2022/09/17 06:30:20;;;;;;;;;;;;;;;;;;5050396;28;19934;-73
2022/09/17 06:32:46;;;;;;;;;;;;;;;;;;5056156;28;19924;-73
2022/09/17 06:35:12;;;;;;;;;;;;;;;;;;5058921;28;19921;-73
2022/09/17 06:37:39;;;;;;;;;;;;;;;;;;5052357;28;20348;-74
2022/09/17 06:40:05;;;;;;;;;;;;;;;;;;5048582;28;19924;-75
2022/09/17 06:42:31;;;;;;;;;;;;;;;;;;5069596;28;19921;-73
2022/09/17 06:44:57;;;;;;;;;;;;;;;;;;5036733;28;19944;-73
2022/09/17 06:47:23;;;;;;;;;;;;;;;;;;5046109;28;21752;-71
2022/09/17 06:49:49;;;;;;;;;;;;;;;;;;5049874;28;19928;-73
2022/09/17 06:52:15;;;;;;;;;;;;;;;;;;5033008;28;20264;-72
2022/09/17 06:54:41;;;;;;;;;;;;;;;;;;5052910;28;19944;-72
2022/09/17 06:57:07;;;;;;;;;;;;;;;;;;5050377;28;20089;-72
2022/09/17 06:59:33;;;;;;;;;;;;;;;;;;5061770;28;19921;-74
2022/09/17 07:01:58;;;;;;;;;;;;;;;;;;5047269;28;19944;-74
2022/09/17 07:04:24;;;;;;;;;;;;;;;;;;5056627;28;19929;-70
2022/09/17 07:06:50;;;;;;;;;;;;;;;;;;5050378;28;19946;-73
2022/09/17 07:09:16;;;;;;;;;;;;;;;;;;5058477;28;20284;-72
2022/09/17 07:11:42;;;;;;;;;;;;;;;;;;5050664;28;19931;-72
2022/09/17 07:14:08;;;;;;;;;;;;;;;;;;5062433;28;19936;-74
2022/09/17 07:16:35;;;;;;;;;;;;;;;;;;5051952;28;19931;-75
2022/09/17 07:19:01;;;;;;;;;;;;;;;;;;5057217;28;19927;-74
2022/09/17 07:21:27;;;;;;;;;;;;;;;;;;5053247;28;19927;-74
2022/09/17 07:23:53;;;;;;;;;;;;;;;;;;5054164;28;19921;-74
2022/09/17 07:26:19;;;;;;;;;;;;;;;;;;5049090;28;20010;-74
2022/09/17 07:28:45;;;;;;;;;;;;;;;;;;5035329;28;19921;-74
2022/09/17 07:31:11;;;;;;;;;;;;;;;;;;5049414;28;19921;-74
2022/09/17 07:33:37;;;;;;;;;;;;;;;;;;5051834;28;20444;-72
2022/09/17 07:36:03;;;;;;;;;;;;;;;;;;5044015;28;20567;-76
2022/09/17 07:38:28;;;;;;;;;;;;;;;;;;5052551;28;20356;-74
2022/09/17 07:40:54;;;;;;;;;;;;;;;;;;5051105;28;20011;-74
2022/09/17 07:43:20;;;;;;;;;;;;;;;;;;5037600;28;19928;-75
2022/09/17 07:45:46;;;;;;;;;;;;;;;;;;5056768;28;19920;-74
2022/09/17 07:48:12;;;;;;;;;;;;;;;;;;5056559;28;20287;-74
2022/09/17 07:50:38;;;;;;;;;;;;;;;;;;5050380;28;20367;-74
2022/09/17 07:53:04;;;;;;;;;;;;;;;;;;5052033;28;20356;-74
2022/09/17 07:55:30;;;;;;;;;;;;;;;;;;5056171;28;19929;-77
2022/09/17 07:57:56;;;;;;;;;;;;;;;;;;5062129;28;19951;-76
2022/09/17 08:00:22;;;;;;;;;;;;;;;;;;5058188;28;20054;-75
2022/09/17 08:02:48;;;;;;;;;;;;;;;;;;5059626;28;19927;-77
2022/09/17 08:05:14;;;;;;;;;;;;;;;;;;5055285;28;19963;-75
2022/09/17 08:07:40;;;;;;;;;;;;;;;;;;5042828;28;20440;-74
2022/09/17 08:10:06;;;;;;;;;;;;;;;;;;5058437;28;20375;-76
2022/09/17 08:12:32;;;;;;;;;;;;;;;;;;5046859;28;19964;-74
2022/09/17 08:14:57;;;;;;;;;;;;;;;;;;5045622;28;20367;-75
2022/09/17 08:17:23;;;;;;;;;;;;;;;;;;5062798;28;19921;-75
2022/09/17 08:19:49;;;;;;;;;;;;;;;;;;5059730;28;20413;-74
2022/09/17 08:22:15;;;;;;;;;;;;;;;;;;5064021;28;19964;-75
2022/09/17 08:24:41;;;;;;;;;;;;;;;;;;5063177;28;19920;-74
2022/09/17 08:27:07;;;;;;;;;;;;;;;;;;5065883;28;19956;-76
2022/09/17 08:29:33;;;;;;;;;;;;;;;;;;5059742;28;19921;-75
2022/09/17 08:31:59;;;;;;;;;;;;;;;;;;5062914;28;20290;-76
2022/09/17 08:34:25;;;;;;;;;;;;;;;;;;5058601;28;20032;-77
2022/09/17 08:36:51;;;;;;;;;;;;;;;;;;5045377;28;19989;-75
2022/09/17 08:39:17;;;;;;;;;;;;;;;;;;5055058;28;19921;-74
2022/09/17 08:41:43;;;;;;;;;;;;;;;;;;5052655;28;19925;-75
2022/09/17 08:44:09;;;;;;;;;;;;;;;;;;5050842;28;19921;-75
2022/09/17 08:46:35;;;;;;;;;;;;;;;;;;5046645;28;20275;-75
2022/09/17 08:49:01;;;;;;;;;;;;;;;;;;5033680;28;19920;-76
2022/09/17 08:51:27;;;;;;;;;;;;;;;;;;5054714;28;20091;-76
2022/09/17 08:53:53;;;;;;;;;;;;;;;;;;5041324;28;20015;-74
2022/09/17 08:56:20;;;;;;;;;;;;;;;;;;5042723;28;19967;-75
2022/09/17 08:58:46;;;;;;;;;;;;;;;;;;5036341;28;19929;-74
2022/09/17 09:01:12;;;;;;;;;;;;;;;;;;5033458;28;20015;-73
2022/09/17 09:03:38;;;;;;;;;;;;;;;;;;5052659;28;19925;-75
2022/09/17 09:06:04;;;;;;;;;;;;;;;;;;5051877;28;19932;-74
2022/09/17 09:08:29;;;;;;;;;;;;;;;;;;5050305;28;19953;-74
2022/09/17 09:10:55;;;;;;;;;;;;;;;;;;5056606;28;19924;-72
2022/09/17 09:13:22;;;;;;;;;;;;;;;;;;5060760;28;20402;-75
2022/09/17 09:15:48;;;;;;;;;;;;;;;;;;5059586;28;19924;-72
2022/09/17 09:18:14;;;;;;;;;;;;;;;;;;5047170;28;19927;-74
2022/09/17 09:20:40;;;;;;;;;;;;;;;;;;5049330;28;19927;-72
2022/09/17 09:23:06;;;;;;;;;;;;;;;;;;5049702;28;19928;-75
2022/09/17 09:25:31;;;;;;;;;;;;;;;;;;5047366;28;19924;-71
2022/09/17 09:27:57;;;;;;;;;;;;;;;;;;5049197;28;19948;-71
2022/09/17 09:30:24;;;;;;;;;;;;;;;;;;5050623;28;19924;-72
2022/09/17 09:32:49;;;;;;;;;;;;;;;;;;5049921;28;20034;-72
2022/09/17 09:35:15;;;;;;;;;;;;;;;;;;5050672;28;19929;-72
2022/09/17 09:37:42;;;;;;;;;;;;;;;;;;5037143;28;19921;-72
2022/09/17 09:40:09;;;;;;;;;;;;;;;;;;5048559;28;20019;-73
2022/09/17 09:42:35;;;;;;;;;;;;;;;;;;5049040;28;20015;-70
2022/09/17 09:45:01;;;;;;;;;;;;;;;;;;5051655;28;20022;-72
2022/09/17 09:47:26;;;;;;;;;;;;;;;;;;5030187;28;20406;-71
2022/09/17 09:49:53;;;;;;;;;;;;;;;;;;5049990;28;19936;-71
2022/09/17 09:52:18;;;;;;;;;;;;;;;;;;5050233;28;20288;-72
2022/09/17 09:54:44;;;;;;;;;;;;;;;;;;5048824;28;19920;-73
2022/09/17 09:57:10;;;;;;;;;;;;;;;;;;5025622;28;19925;-72
2022/09/17 09:59:36;;;;;;;;;;;;;;;;;;5050500;28;19960;-70
2022/09/17 10:02:02;;;;;;;;;;;;;;;;;;5053407;28;20291;-76
2022/09/17 10:04:29;;;;;;;;;;;;;;;;;;5053966;28;19920;-71
2022/09/17 10:06:55;;;;;;;;;;;;;;;;;;5049602;28;19921;-72
2022/09/17 10:09:21;;;;;;;;;;;;;;;;;;5036803;28;20346;-71
2022/09/17 10:11:47;;;;;;;;;;;;;;;;;;5060976;28;19975;-71
2022/09/17 10:14:13;;;;;;;;;;;;;;;;;;5053850;28;19970;-71
2022/09/17 10:16:39;;;;;;;;;;;;;;;;;;5056101;28;19963;-72
2022/09/17 10:19:05;;;;;;;;;;;;;;;;;;5054339;28;19921;-72
2022/09/17 10:21:31;;;;;;;;;;;;;;;;;;5063917;28;19974;-72
2022/09/17 10:23:57;;;;;;;;;;;;;;;;;;5062363;28;19925;-72
2022/09/17 10:26:23;;;;;;;;;;;;;;;;;;5055706;28;20290;-72
2022/09/17 10:28:48;;;;;;;;;;;;;;;;;;5052801;28;19924;-71
2022/09/17 10:31:15;;;;;;;;;;;;;;;;;;5045332;28;20323;-71
2022/09/17 10:33:41;;;;;;;;;;;;;;;;;;5057372;28;20505;-71
2022/09/17 10:36:08;;;;;;;;;;;;;;;;;;5044687;28;19921;-71
2022/09/17 10:38:34;;;;;;;;;;;;;;;;;;5039281;28;19920;-71
2022/09/17 10:41:00;;;;;;;;;;;;;;;;;;5049096;28;19928;-72
2022/09/17 10:43:26;;;;;;;;;;;;;;;;;;5050383;28;20394;-75
2022/09/17 10:45:52;;;;;;;;;;;;;;;;;;5069548;28;19929;-74
2022/09/17 10:48:21;;;;;;;;;;;;;;;;;;5035448;28;19921;-72
2022/09/17 10:50:47;;;;;;;;;;;;;;;;;;5033069;28;19923;-72
2022/09/17 10:53:13;;;;;;;;;;;;;;;;;;5032388;28;19995;-74
2022/09/17 10:55:39;;;;;;;;;;;;;;;;;;5050161;28;19917;-73
2022/09/17 10:58:08;;;;;;;;;;;;;;;;;;5051977;28;19970;-72
2022/09/17 11:00:34;;;;;;;;;;;;;;;;;;5042790;28;19917;-74
2022/09/17 11:03:00;;;;;;;;;;;;;;;;;;5040782;28;19924;-73
2022/09/17 11:05:26;;;;;;;;;;;;;;;;;;5052023;28;19917;-74
2022/09/17 11:07:53;;;;;;;;;;;;;;;;;;5035911;28;20395;-77
2022/09/17 11:10:19;;;;;;;;;;;;;;;;;;5050383;28;19974;-73
2022/09/17 11:12:45;;;;;;;;;;;;;;;;;;5047628;28;19974;-73
2022/09/17 11:15:10;;;;;;;;;;;;;;;;;;5050941;28;19924;-73
2022/09/17 11:17:36;;;;;;;;;;;;;;;;;;5050124;28;19920;-73
2022/09/17 11:20:03;;;;;;;;;;;;;;;;;;5048105;28;19924;-70
2022/09/17 11:22:29;;;;;;;;;;;;;;;;;;5048145;28;19929;-71
2022/09/17 11:24:55;;;;;;;;;;;;;;;;;;5046894;28;19932;-72
2022/09/17 11:27:21;;;;;;;;;;;;;;;;;;5043483;28;19921;-71
2022/09/17 11:29:47;;;;;;;;;;;;;;;;;;5048733;28;19951;-71
2022/09/17 11:32:13;;;;;;;;;;;;;;;;;;5049436;28;20268;-72
2022/09/17 11:34:38;;;;;;;;;;;;;;;;;;5049355;28;20449;-70
2022/09/17 11:37:04;;;;;;;;;;;;;;;;;;5046014;28;20330;-77
2022/09/17 11:39:30;;;;;;;;;;;;;;;;;;5042538;28;20370;-78
2022/09/17 11:41:56;;;;;;;;;;;;;;;;;;5043178;28;19920;-74
2022/09/17 11:44:22;;;;;;;;;;;;;;;;;;5045166;28;19920;-72
2022/09/17 11:46:48;;;;;;;;;;;;;;;;;;5044881;28;19920;-72
2022/09/17 11:49:15;;;;;;;;;;;;;;;;;;5043942;28;20007;-73
2022/09/17 11:51:41;;;;;;;;;;;;;;;;;;5030532;28;19956;-76
2022/09/17 11:54:07;;;;;;;;;;;;;;;;;;5044673;28;20400;-77
2022/09/17 11:56:33;;;;;;;;;;;;;;;;;;5031010;28;20322;-73
2022/09/17 11:58:59;;;;;;;;;;;;;;;;;;5048958;28;19956;-73
2022/09/17 12:01:25;;;;;;;;;;;;;;;;;;5046042;28;20021;-73
2022/09/17 12:03:51;;;;;;;;;;;;;;;;;;5049105;28;19924;-74
2022/09/17 12:06:17;;;;;;;;;;;;;;;;;;5047778;28;19972;-77
2022/09/17 12:08:43;;;;;;;;;;;;;;;;;;5030727;28;20010;-75
2022/09/17 12:11:09;;;;;;;;;;;;;;;;;;5025585;28;19967;-75
2022/09/17 12:13:35;;;;;;;;;;;;;;;;;;5046567;28;19931;-74
2022/09/17 12:16:01;;;;;;;;;;;;;;;;;;5047096;28;19990;-74
2022/09/17 12:18:27;;;;;;;;;;;;;;;;;;5034706;28;19929;-74
2022/09/17 12:20:53;;;;;;;;;;;;;;;;;;5052114;28;19928;-75
2022/09/17 12:23:19;;;;;;;;;;;;;;;;;;5037608;28;20356;-78
2022/09/17 12:25:45;;;;;;;;;;;;;;;;;;5033900;28;19928;-76
2022/09/17 12:28:11;;;;;;;;;;;;;;;;;;5028919;28;19921;-73
2022/09/17 12:30:37;;;;;;;;;;;;;;;;;;5048057;28;20011;-74
2022/09/17 12:33:03;;;;;;;;;;;;;;;;;;5042982;28;19925;-75
2022/09/17 12:35:29;;;;;;;;;;;;;;;;;;5045035;28;19924;-76
2022/09/17 12:37:55;;;;;;;;;;;;;;;;;;5041819;28;19921;-72
2022/09/17 12:40:21;;;;;;;;;;;;;;;;;;5031417;28;19947;-74
2022/09/17 12:42:47;;;;;;;;;;;;;;;;;;5045649;28;19978;-77
2022/09/17 12:45:12;;;;;;;;;;;;;;;;;;5030848;28;20310;-78
2022/09/17 12:47:38;;;;;;;;;;;;;;;;;;5058490;28;19928;-79
2022/09/17 12:50:05;;;;;;;;;;;;;;;;;;5027570;28;19927;-79
2022/09/17 12:52:31;;;;;;;;;;;;;;;;;;5046413;28;19921;-79
2022/09/17 12:54:57;;;;;;;;;;;;;;;;;;5047206;28;19920;-77
2022/09/17 12:57:23;;;;;;;;;;;;;;;;;;5044741;28;20010;-77
2022/09/17 12:59:49;;;;;;;;;;;;;;;;;;5051048;28;19932;-77
2022/09/17 13:02:15;;;;;;;;;;;;;;;;;;5063444;28;19920;-77
2022/09/17 13:04:41;;;;;;;;;;;;;;;;;;5050182;28;20383;-76
2022/09/17 13:07:07;;;;;;;;;;;;;;;;;;5035297;28;19925;-75
2022/09/17 13:09:33;;;;;;;;;;;;;;;;;;5035243;28;19921;-75
2022/09/17 13:11:58;;;;;;;;;;;;;;;;;;5053002;28;20028;-76
2022/09/17 13:14:24;;;;;;;;;;;;;;;;;;5036533;28;20343;-75
2022/09/17 13:16:51;;;;;;;;;;;;;;;;;;5048880;28;19920;-77
2022/09/17 13:19:17;;;;;;;;;;;;;;;;;;5031838;28;19928;-75
2022/09/17 13:21:43;;;;;;;;;;;;;;;;;;5027915;28;20345;-74
2022/09/17 13:24:09;;;;;;;;;;;;;;;;;;5053131;28;20027;-79
2022/09/17 13:26:35;;;;;;;;;;;;;;;;;;5060867;28;19920;-79
2022/09/17 13:29:01;;;;;;;;;;;;;;;;;;5037724;28;20003;-72
2022/09/17 13:31:26;;;;;;;;;;;;;;;;;;5059182;28;20016;-75
2022/09/17 13:33:52;;;;;;;;;;;;;;;;;;5049231;28;19921;-76
2022/09/17 13:36:18;;;;;;;;;;;;;;;;;;5059296;28;19924;-73
2022/09/17 13:38:44;;;;;;;;;;;;;;;;;;5046958;28;19967;-74
2022/09/17 13:41:10;;;;;;;;;;;;;;;;;;5059558;28;19921;-73
2022/09/17 13:43:36;;;;;;;;;;;;;;;;;;5051679;28;20329;-74
2022/09/17 13:46:04;;;;;;;;;;;;;;;;;;5060354;28;19939;-72
2022/09/17 13:48:30;;;;;;;;;;;;;;;;;;5049105;28;19921;-74
2022/09/17 13:50:56;;;;;;;;;;;;;;;;;;5052314;28;20027;-81
2022/09/17 13:53:25;;;;;;;;;;;;;;;;;;5064795;28;19975;-73
2022/09/17 13:55:51;;;;;;;;;;;;;;;;;;5045374;28;19921;-75
2022/09/17 13:58:20;;;;;;;;;;;;;;;;;;5032177;28;19920;-77
2022/09/17 14:00:46;;;;;;;;;;;;;;;;;;5030211;28;19948;-71
2022/09/17 14:03:12;;;;;;;;;;;;;;;;;;5029300;28;19921;-75
2022/09/17 14:05:38;;;;;;;;;;;;;;;;;;5049470;28;19920;-79
2022/09/17 14:08:04;;;;;;;;;;;;;;;;;;5049418;28;19956;-71
2022/09/17 14:10:30;;;;;;;;;;;;;;;;;;5049781;28;20287;-72
2022/09/17 14:12:57;;;;;;;;;;;;;;;;;;5051035;28;19924;-74
2022/09/17 14:15:23;;;;;;;;;;;;;;;;;;5051133;28;20016;-71
2022/09/17 14:17:50;;;;;;;;;;;;;;;;;;5047472;28;20023;-70
2022/09/17 14:20:16;;;;;;;;;;;;;;;;;;5043743;28;20451;-74
2022/09/17 14:22:42;;;;;;;;;;;;;;;;;;5047776;28;20027;-74
2022/09/17 14:25:07;;;;;;;;;;;;;;;;;;5041997;28;19921;-72
2022/09/17 14:27:33;;;;;;;;;;;;;;;;;;5052633;28;20295;-72
2022/09/17 14:30:00;;;;;;;;;;;;;;;;;;5031744;28;20368;-72
2022/09/17 14:32:26;;;;;;;;;;;;;;;;;;5035410;28;19925;-73
2022/09/17 14:34:52;;;;;;;;;;;;;;;;;;5045359;28;19967;-72
2022/09/17 14:37:18;;;;;;;;;;;;;;;;;;5036795;28;19921;-72
2022/09/17 14:39:44;;;;;;;;;;;;;;;;;;5047244;28;19986;-71
2022/09/17 14:42:10;;;;;;;;;;;;;;;;;;5019250;28;20368;-72
2022/09/17 14:44:36;;;;;;;;;;;;;;;;;;5042899;28;20371;-72
2022/09/17 14:47:02;;;;;;;;;;;;;;;;;;5051505;28;20351;-74
2022/09/17 14:49:29;;;;;;;;;;;;;;;;;;5037454;28;19921;-72
2022/09/17 14:51:55;;;;;;;;;;;;;;;;;;5046195;28;20015;-74
2022/09/17 14:54:21;;;;;;;;;;;;;;;;;;5034879;28;20426;-72
2022/09/17 14:56:47;;;;;;;;;;;;;;;;;;5053935;28;19920;-72
2022/09/17 14:59:13;;;;;;;;;;;;;;;;;;5035620;28;20062;-72
2022/09/17 15:01:39;;;;;;;;;;;;;;;;;;5046108;28;19920;-72
2022/09/17 15:04:05;;;;;;;;;;;;;;;;;;5036239;28;19932;-72
2022/09/17 15:06:31;;;;;;;;;;;;;;;;;;5046756;28;19928;-73
2022/09/17 15:08:56;;;;;;;;;;;;;;;;;;5033619;28;19925;-72
2022/09/17 15:11:22;;;;;;;;;;;;;;;;;;5042628;28;19924;-72
2022/09/17 15:13:48;;;;;;;;;;;;;;;;;;5038457;28;19932;-73
2022/09/17 15:16:14;;;;;;;;;;;;;;;;;;5029984;28;19927;-73
2022/09/17 15:18:40;;;;;;;;;;;;;;;;;;5037244;28;19921;-73
2022/09/17 15:21:06;;;;;;;;;;;;;;;;;;5036236;28;19928;-73
2022/09/17 15:23:32;;;;;;;;;;;;;;;;;;5037094;28;19925;-73
2022/09/17 15:25:58;;;;;;;;;;;;;;;;;;5034390;28;19927;-73
2022/09/17 15:28:24;;;;;;;;;;;;;;;;;;5044426;28;19975;-73
2022/09/17 15:30:50;;;;;;;;;;;;;;;;;;5033885;28;19967;-73
2022/09/17 15:33:18;;;;;;;;;;;;;;;;;;5044411;28;20313;-72
2022/09/17 15:35:44;;;;;;;;;;;;;;;;;;5033008;28;20383;-73
2022/09/17 15:38:10;;;;;;;;;;;;;;;;;;5028859;28;20004;-73
2022/09/17 15:40:36;;;;;;;;;;;;;;;;;;5032799;28;19983;-73
2022/09/17 15:43:02;;;;;;;;;;;;;;;;;;5044471;28;19976;-73
2022/09/17 15:45:27;;;;;;;;;;;;;;;;;;5041599;28;19921;-74
2022/09/17 15:47:53;;;;;;;;;;;;;;;;;;5050022;28;20391;-73
2022/09/17 15:50:19;;;;;;;;;;;;;;;;;;5045688;28;20016;-74
2022/09/17 15:52:45;;;;;;;;;;;;;;;;;;5044220;28;19971;-73
2022/09/17 15:55:11;;;;;;;;;;;;;;;;;;5032758;28;19975;-73
2022/09/17 15:57:37;;;;;;;;;;;;;;;;;;5046921;28;19924;-73
2022/09/17 16:00:03;;;;;;;;;;;;;;;;;;5040380;28;19932;-73
2022/09/17 16:02:29;;;;;;;;;;;;;;;;;;5044501;28;19925;-72
2022/09/17 16:04:55;;;;;;;;;;;;;;;;;;5035102;28;20011;-73
2022/09/17 16:07:21;;;;;;;;;;;;;;;;;;5040439;28;19921;-72
2022/09/17 16:09:47;;;;;;;;;;;;;;;;;;5038618;28;19921;-73
2022/09/17 16:12:13;;;;;;;;;;;;;;;;;;5043762;28;20368;-72
2022/09/17 16:14:39;;;;;;;;;;;;;;;;;;5053959;28;20024;-73
2022/09/17 16:17:05;;;;;;;;;;;;;;;;;;5030549;28;19921;-72